createdAt,value
2023-05-14T00:00:49.584Z,68.58
2023-05-14T00:02:01.128Z,67.79
2023-05-14T00:03:06.608Z,67.12
2023-05-14T00:04:21.758Z,66.40
2023-05-14T00:05:30.467Z,66.20
2023-05-14T00:06:41.651Z,67.32
2023-05-14T00:07:46.279Z,67.47
2023-05-14T00:09:21.061Z,68.22
2023-05-14T00:10:25.881Z,69.23
2023-05-14T00:11:33.221Z,69.34
2023-05-14T00:12:47.711Z,69.65
2023-05-14T00:14:00.759Z,68.92
2023-05-14T00:15:10.857Z,69.39
2023-05-14T00:16:15.151Z,70.35
2023-05-14T00:17:20.825Z,70.39
2023-05-14T00:18:24.323Z,70.09
2023-05-14T00:19:28.656Z,69.39
2023-05-14T00:20:31.702Z,69.19
2023-05-14T00:21:36.113Z,69.19
2023-05-14T00:22:42.563Z,68.98
2023-05-14T00:23:47.453Z,68.84
2023-05-14T00:24:49.792Z,68.66
2023-05-14T00:25:58.445Z,68.69
2023-05-14T00:27:11.124Z,68.17
2023-05-14T00:28:17.675Z,68.34
2023-05-14T00:29:24.878Z,68.00
2023-05-14T00:30:39.914Z,67.68
2023-05-14T00:32:50.643Z,68.44
2023-05-14T00:33:54.762Z,68.30
2023-05-14T00:35:00.948Z,68.19
2023-05-14T00:36:13.220Z,68.39
2023-05-14T00:37:17.166Z,67.66
2023-05-14T00:38:26.638Z,67.22
2023-05-14T00:39:37.769Z,67.70
2023-05-14T00:40:51.444Z,68.56
2023-05-14T00:41:53.882Z,68.56
2023-05-14T00:43:00.649Z,68.17
2023-05-14T00:44:06.321Z,68.50
2023-05-14T00:45:15.283Z,68.59
2023-05-14T00:46:22.227Z,67.84
2023-05-14T00:47:30.852Z,67.62
2023-05-14T00:48:37.073Z,68.12
2023-05-14T00:49:47.585Z,67.76
2023-05-14T00:50:52.691Z,68.05
2023-05-14T00:51:59.224Z,67.46
2023-05-14T00:53:04.711Z,67.94
2023-05-14T00:54:11.308Z,68.34
2023-05-14T00:55:18.956Z,68.17
2023-05-14T00:56:24.915Z,68.25
2023-05-14T00:57:28.975Z,67.59
2023-05-14T00:58:33.863Z,67.83
2023-05-14T00:59:37.433Z,67.77
2023-05-14T01:00:44.981Z,67.43
2023-05-14T01:01:49.700Z,67.32
2023-05-14T01:02:55.171Z,67.16
2023-05-14T01:04:01.785Z,66.69
2023-05-14T01:05:08.919Z,66.95
2023-05-14T01:06:18.031Z,67.31
2023-05-14T01:07:33.583Z,66.76
2023-05-14T01:08:50.249Z,67.65
2023-05-14T01:10:01.962Z,67.42
2023-05-14T01:11:13.771Z,67.28
2023-05-14T01:12:25.021Z,67.91
2023-05-14T01:13:34.653Z,68.13
2023-05-14T01:14:48.227Z,68.16
2023-05-14T01:15:53.674Z,68.17
2023-05-14T01:17:04.064Z,68.01
2023-05-14T01:18:09.462Z,68.13
2023-05-14T01:19:23.959Z,68.56
2023-05-14T01:20:27.984Z,68.20
2023-05-14T01:21:40.782Z,69.47
2023-05-14T01:22:47.052Z,69.78
2023-05-14T01:23:53.324Z,69.08
2023-05-14T01:25:10.702Z,68.87
2023-05-14T01:26:18.260Z,68.61
2023-05-14T01:27:28.337Z,67.54
2023-05-14T01:28:36.869Z,67.21
2023-05-14T01:29:45.191Z,66.66
2023-05-14T01:30:54.618Z,67.78
2023-05-14T01:32:02.712Z,68.03
2023-05-14T01:33:12.920Z,68.52
2023-05-14T01:34:23.887Z,68.13
2023-05-14T01:35:29.739Z,68.88
2023-05-14T01:36:34.531Z,68.64
2023-05-14T01:37:41.551Z,69.02
2023-05-14T03:15:36.667Z,70.59
2023-05-14T03:16:42.680Z,71.42
2023-05-14T03:17:47.465Z,71.64
2023-05-14T03:18:55.040Z,72.46
2023-05-14T03:20:02.694Z,72.19
2023-05-14T03:21:06.000Z,71.87
2023-05-14T03:22:18.610Z,71.61
2023-05-14T03:23:26.894Z,71.53
2023-05-14T03:24:30.645Z,71.16
2023-05-14T03:25:35.279Z,70.70
2023-05-14T03:26:41.774Z,69.87
2023-05-14T03:27:45.718Z,69.64
2023-05-14T03:28:49.609Z,70.79
2023-05-14T03:29:56.759Z,70.00
2023-05-14T03:31:06.477Z,70.88
2023-05-14T03:32:09.689Z,70.18
2023-05-14T03:33:17.065Z,70.60
2023-05-14T03:34:20.142Z,70.72
2023-05-14T03:35:31.022Z,69.80
2023-05-14T03:36:36.619Z,70.24
2023-05-14T03:37:47.816Z,70.65
2023-05-14T03:38:56.004Z,69.98
2023-05-14T03:40:06.220Z,69.82
2023-05-14T03:41:22.228Z,69.69
2023-05-14T03:42:30.699Z,69.23
2023-05-14T03:43:35.376Z,69.16
2023-05-14T03:44:40.524Z,68.83
2023-05-14T03:45:47.364Z,69.11
2023-05-14T03:46:52.904Z,69.23
2023-05-14T03:47:59.068Z,69.45
2023-05-14T03:49:02.151Z,69.34
2023-05-14T03:50:08.688Z,69.91
2023-05-14T03:51:11.167Z,70.48
2023-05-14T03:52:15.877Z,70.79
2023-05-14T03:53:23.892Z,69.92
2023-05-14T03:54:38.808Z,69.94
2023-05-14T03:55:45.185Z,70.69
2023-05-14T03:56:54.060Z,70.79
2023-05-14T03:57:59.580Z,70.31
2023-05-14T03:59:25.251Z,69.82
2023-05-14T04:00:32.958Z,69.81
2023-05-14T04:01:45.030Z,70.08
2023-05-14T04:02:56.766Z,69.90
2023-05-14T04:04:00.756Z,69.64
2023-05-14T04:05:11.852Z,69.34
2023-05-14T04:06:16.807Z,68.94
2023-05-14T04:07:25.449Z,67.93
2023-05-14T04:08:29.386Z,68.09
2023-05-14T04:09:37.238Z,68.96
2023-05-14T04:10:41.598Z,68.76
2023-05-14T04:11:49.647Z,69.36
2023-05-14T04:12:52.038Z,69.67
2023-05-14T04:13:56.521Z,69.79
2023-05-14T04:15:01.637Z,69.61
2023-05-14T04:16:12.880Z,70.73
2023-05-14T04:17:17.771Z,71.29
2023-05-14T04:18:30.068Z,70.49
2023-05-14T04:19:44.987Z,70.04
2023-05-14T04:20:50.408Z,70.44
2023-05-14T04:21:58.065Z,69.98
2023-05-14T04:23:05.421Z,71.32
2023-05-14T04:24:11.195Z,70.71
2023-05-14T04:25:22.553Z,69.99
2023-05-14T04:26:29.764Z,69.07
2023-05-14T04:27:35.422Z,69.15
2023-05-14T04:28:40.731Z,69.70
2023-05-14T04:29:44.752Z,69.20
2023-05-14T04:30:51.507Z,69.06
2023-05-14T04:31:59.466Z,68.75
2023-05-14T04:33:03.998Z,68.86
2023-05-14T04:34:11.853Z,69.06
2023-05-14T04:35:14.594Z,69.47
2023-05-14T04:36:19.233Z,69.61
2023-05-14T04:37:22.338Z,68.40
2023-05-14T04:38:26.534Z,67.24
2023-05-14T04:39:30.847Z,67.70
2023-05-14T04:40:34.997Z,68.55
2023-05-14T04:41:39.459Z,68.29
2023-05-14T04:42:44.051Z,67.16
2023-05-14T04:43:52.161Z,67.41
2023-05-14T04:44:56.483Z,68.52
2023-05-14T04:46:09.162Z,69.61
2023-05-14T04:47:18.772Z,70.14
2023-05-14T04:48:29.385Z,70.09
2023-05-14T04:49:35.654Z,71.08
2023-05-14T04:50:47.374Z,69.86
2023-05-14T04:51:52.857Z,70.32
2023-05-14T04:52:59.927Z,69.63
2023-05-14T04:54:08.730Z,69.12
2023-05-14T04:55:15.711Z,68.28
2023-05-14T04:56:20.149Z,67.62
2023-05-14T04:58:50.232Z,67.95
2023-05-14T04:59:54.136Z,68.75
2023-05-14T05:01:07.444Z,69.13
2023-05-14T05:02:12.285Z,68.99
2023-05-14T05:03:29.502Z,68.26
2023-05-14T05:04:38.413Z,68.47
2023-05-14T05:05:46.644Z,67.94
2023-05-14T05:07:11.560Z,68.41
2023-05-14T05:08:24.316Z,68.60
2023-05-14T05:09:39.021Z,68.62
2023-05-14T05:10:45.882Z,68.02
2023-05-14T05:11:48.628Z,68.58
2023-05-14T05:12:53.713Z,68.45
2023-05-14T05:13:58.853Z,68.51
2023-05-14T05:15:15.030Z,69.13
2023-05-14T05:16:26.807Z,67.79
2023-05-14T05:17:32.266Z,66.71
2023-05-14T05:18:35.900Z,66.75
2023-05-14T05:19:44.238Z,67.51
2023-05-14T05:20:51.676Z,67.49
2023-05-14T05:22:08.596Z,68.29
2023-05-14T05:23:21.352Z,68.33
2023-05-14T05:24:24.585Z,68.92
2023-05-14T05:25:29.346Z,67.24
2023-05-14T05:26:41.212Z,67.43
2023-05-14T05:27:46.796Z,67.00
2023-05-14T05:29:10.404Z,65.85
2023-05-14T05:30:14.567Z,66.33
2023-05-14T05:31:20.888Z,65.78
2023-05-14T05:32:23.708Z,67.03
2023-05-14T05:33:33.894Z,65.61
2023-05-14T05:34:38.017Z,65.25
2023-05-14T05:35:56.222Z,65.82
2023-05-14T05:37:03.305Z,65.69
2023-05-14T05:38:15.336Z,67.47
2023-05-14T05:39:32.016Z,67.06
2023-05-14T05:41:02.006Z,65.41
2023-05-14T05:42:11.119Z,66.49
2023-05-14T05:43:18.915Z,66.43
2023-05-14T05:44:21.684Z,66.47
2023-05-14T05:45:38.867Z,66.39
2023-05-14T05:46:47.128Z,64.80
2023-05-14T05:47:51.926Z,66.16
2023-05-14T05:48:55.874Z,66.24
2023-05-14T05:50:01.733Z,66.50
2023-05-14T05:52:31.060Z,66.13
2023-05-14T05:53:38.093Z,66.85
2023-05-14T05:55:03.945Z,66.88
2023-05-14T05:56:39.326Z,65.77
2023-05-14T05:58:03.653Z,65.30
2023-05-14T05:59:18.383Z,66.55
2023-05-14T06:00:27.539Z,66.38
2023-05-14T06:01:35.940Z,64.12
2023-05-14T06:04:02.559Z,65.91
2023-05-14T06:05:13.013Z,65.53
2023-05-14T06:06:20.848Z,65.92
2023-05-14T06:08:49.874Z,65.95
2023-05-14T06:09:59.155Z,63.80
2023-05-14T06:11:05.709Z,65.12
2023-05-14T06:12:13.421Z,65.72
2023-05-14T06:13:25.098Z,65.27
2023-05-14T06:14:35.008Z,64.67
2023-05-14T06:15:39.133Z,64.59
2023-05-14T06:16:48.028Z,64.25
2023-05-14T06:17:54.289Z,63.94
2023-05-14T06:19:07.949Z,64.28
2023-05-14T06:20:14.135Z,64.64
2023-05-14T06:21:26.909Z,66.18
2023-05-14T06:22:32.660Z,66.08
2023-05-14T06:25:04.806Z,65.74
2023-05-14T06:26:14.666Z,65.57
2023-05-14T06:27:17.504Z,65.51
2023-05-14T06:28:33.418Z,65.02
2023-05-14T06:29:41.781Z,65.48
2023-05-14T06:30:53.244Z,65.39
2023-05-14T06:35:15.324Z,67.07
2023-05-14T06:36:21.794Z,66.96
2023-05-14T06:37:33.756Z,66.35
2023-05-14T06:38:40.343Z,66.70
2023-05-14T06:39:51.586Z,66.84
2023-05-14T06:41:04.300Z,66.52
2023-05-14T06:42:14.204Z,66.05
2023-05-14T07:13:16.732Z,66.57
2023-05-14T07:14:19.855Z,67.13
2023-05-14T07:15:24.290Z,66.51
2023-05-14T07:16:38.057Z,66.97
2023-05-14T07:17:41.907Z,67.27
2023-05-14T07:18:47.849Z,66.70
2023-05-14T07:19:52.474Z,68.02
2023-05-14T07:20:58.265Z,68.85
2023-05-14T07:22:21.593Z,68.55
2023-05-14T07:23:24.830Z,69.61
2023-05-14T07:24:33.255Z,69.26
2023-05-14T07:25:43.464Z,69.62
2023-05-14T07:26:48.006Z,69.59
2023-05-14T07:27:52.402Z,68.96
2023-05-14T07:29:36.141Z,67.80
2023-05-14T07:30:38.993Z,68.14
2023-05-14T07:31:43.363Z,69.05
2023-05-14T07:33:13.641Z,68.11
2023-05-14T07:34:45.706Z,67.35
2023-05-14T07:36:02.270Z,67.61
2023-05-14T07:37:11.110Z,67.14
2023-05-14T07:38:18.450Z,67.35
2023-05-14T07:39:41.817Z,67.54
2023-05-14T07:40:46.680Z,67.31
2023-05-14T07:41:51.315Z,67.26
2023-05-14T07:42:53.727Z,65.89
2023-05-14T07:43:57.244Z,65.28
2023-05-14T07:45:03.372Z,64.55
2023-05-14T07:46:06.945Z,63.60
2023-05-14T07:47:10.086Z,62.87
2023-05-14T07:48:24.813Z,61.48
2023-05-14T07:49:35.351Z,60.95
2023-05-14T07:50:43.749Z,61.06
2023-05-14T07:51:46.396Z,60.68
2023-05-14T07:52:50.573Z,61.57
2023-05-14T07:53:53.333Z,61.02
2023-05-14T07:54:57.179Z,60.99
2023-05-14T07:56:01.699Z,60.75
2023-05-14T07:57:04.779Z,62.17
2023-05-14T07:58:11.144Z,61.94
2023-05-14T07:59:16.417Z,60.76
2023-05-14T08:00:26.491Z,60.38
2023-05-14T08:01:37.745Z,60.41
2023-05-14T08:02:43.210Z,60.07
2023-05-14T08:03:46.387Z,60.20
2023-05-14T08:04:49.987Z,61.35
2023-05-14T08:05:53.367Z,61.18
2023-05-14T08:06:58.891Z,60.72
2023-05-14T08:08:02.186Z,60.40
2023-05-14T08:09:23.813Z,58.85
2023-05-14T08:10:35.912Z,59.46
2023-05-14T08:11:39.650Z,58.09
2023-05-14T08:12:43.862Z,59.35
2023-05-14T08:13:48.579Z,60.26
2023-05-14T08:14:53.683Z,59.78
2023-05-14T08:15:57.992Z,59.43
2023-05-14T08:17:04.905Z,59.29
2023-05-14T08:18:08.157Z,59.43
2023-05-14T08:19:15.359Z,58.72
2023-05-14T08:20:20.387Z,58.48
2023-05-14T08:21:28.370Z,58.35
2023-05-14T08:22:37.674Z,58.71
2023-05-14T08:23:41.665Z,58.77
2023-05-14T08:24:44.635Z,59.19
2023-05-14T08:26:06.415Z,59.02
2023-05-14T08:27:14.907Z,58.85
2023-05-14T08:28:21.362Z,58.57
2023-05-14T08:29:24.025Z,59.13
2023-05-14T08:30:28.530Z,58.88
2023-05-14T08:31:33.210Z,57.88
2023-05-14T08:32:38.772Z,58.75
2023-05-14T08:33:47.292Z,58.21
2023-05-14T08:34:54.061Z,58.28
2023-05-14T08:35:58.858Z,58.57
2023-05-14T08:37:03.188Z,58.85
2023-05-14T08:38:06.477Z,60.67
2023-05-14T08:39:10.363Z,59.51
2023-05-14T08:40:14.062Z,60.30
2023-05-14T08:41:20.300Z,60.26
2023-05-14T08:42:25.943Z,60.26
2023-05-14T08:43:52.465Z,60.10
2023-05-14T08:45:01.462Z,59.72
2023-05-14T08:46:07.987Z,59.86
2023-05-14T08:47:16.572Z,59.27
2023-05-14T08:48:25.009Z,58.12
2023-05-14T08:49:40.613Z,57.82
2023-05-14T08:50:46.059Z,57.82
2023-05-14T08:51:49.550Z,58.19
2023-05-14T08:52:59.488Z,57.28
2023-05-14T08:54:04.062Z,57.92
2023-05-14T08:55:22.021Z,58.68
2023-05-14T08:56:32.408Z,58.25
2023-05-14T08:57:46.016Z,58.02
2023-05-14T08:58:51.061Z,57.44
2023-05-14T09:00:00.491Z,56.87
2023-05-14T09:01:08.313Z,57.46
2023-05-14T09:02:18.509Z,57.47
2023-05-14T09:03:23.468Z,57.15
2023-05-14T09:04:27.920Z,56.83
2023-05-14T09:05:33.761Z,56.68
2023-05-14T09:06:44.307Z,56.23
2023-05-14T09:07:47.567Z,56.05
2023-05-14T09:08:52.837Z,55.54
2023-05-14T09:10:02.633Z,55.65
2023-05-14T09:11:07.522Z,55.40
2023-05-14T09:12:11.482Z,55.43
2023-05-14T09:13:15.899Z,55.73
2023-05-14T09:14:19.212Z,55.95
2023-05-14T09:15:29.222Z,55.69
2023-05-14T09:16:32.573Z,55.72
2023-05-14T09:17:42.392Z,54.88
2023-05-14T09:18:48.772Z,54.58
2023-05-14T09:19:54.992Z,54.66
2023-05-14T09:21:01.521Z,55.82
2023-05-14T09:22:11.565Z,56.31
2023-05-14T09:23:15.683Z,57.04
2023-05-14T09:24:29.615Z,56.23
2023-05-14T09:25:35.518Z,55.48
2023-05-14T09:26:39.625Z,56.09
2023-05-14T09:27:42.690Z,56.37
2023-05-14T09:28:50.063Z,55.44
2023-05-14T09:29:53.038Z,55.20
2023-05-14T09:31:06.114Z,55.80
2023-05-14T09:32:25.069Z,55.12
2023-05-14T09:33:33.495Z,55.17
2023-05-14T09:34:39.136Z,54.03
2023-05-14T09:35:43.669Z,54.24
2023-05-14T09:36:48.767Z,54.09
2023-05-14T09:38:10.767Z,53.74
2023-05-14T09:39:22.824Z,54.12
2023-05-14T09:40:29.358Z,54.37
2023-05-14T09:41:33.288Z,53.91
2023-05-14T09:42:45.575Z,54.35
2023-05-14T09:43:48.857Z,54.70
2023-05-14T09:44:57.738Z,53.69
2023-05-14T09:46:01.982Z,53.66
2023-05-14T09:47:09.829Z,52.48
2023-05-14T09:48:15.013Z,52.25
2023-05-14T09:49:23.801Z,52.72
2023-05-14T09:50:36.283Z,52.50
2023-05-14T09:52:04.662Z,52.67
2023-05-14T09:53:12.974Z,52.05
2023-05-14T09:54:16.262Z,52.11
2023-05-14T09:55:22.911Z,52.17
2023-05-14T09:56:29.060Z,52.66
2023-05-14T09:57:33.947Z,52.75
2023-05-14T09:58:41.885Z,52.57
2023-05-14T09:59:47.954Z,53.57
2023-05-14T10:00:53.167Z,53.70
2023-05-14T10:02:07.435Z,54.88
2023-05-14T10:03:20.526Z,56.09
2023-05-14T10:04:29.638Z,55.74
2023-05-14T10:05:39.983Z,56.04
2023-05-14T10:06:59.433Z,56.24
2023-05-14T10:08:11.524Z,55.40
2023-05-14T10:09:18.649Z,53.62
2023-05-14T10:10:26.586Z,53.19
2023-05-14T10:11:44.187Z,53.67
2023-05-14T10:12:56.459Z,54.23
2023-05-14T10:14:09.670Z,53.87
2023-05-14T10:15:19.298Z,53.17
2023-05-14T10:16:28.866Z,53.59
2023-05-14T10:17:36.678Z,54.53
2023-05-14T10:18:42.052Z,54.99
2023-05-14T10:19:55.320Z,55.29
2023-05-14T10:21:04.570Z,55.73
2023-05-14T10:22:12.231Z,54.06
2023-05-14T10:23:15.344Z,54.36
2023-05-14T10:24:20.868Z,53.46
2023-05-14T10:25:27.451Z,53.28
2023-05-14T10:26:31.750Z,52.06
2023-05-14T10:27:37.065Z,51.00
2023-05-14T10:28:41.243Z,50.28
2023-05-14T10:29:55.327Z,51.71
2023-05-14T10:31:00.668Z,52.96
2023-05-14T10:32:07.385Z,53.53
2023-05-14T10:33:12.450Z,53.79
2023-05-14T10:34:34.838Z,54.62
2023-05-14T10:35:59.628Z,53.76
2023-05-14T10:37:03.762Z,52.56
2023-05-14T10:38:10.228Z,51.62
2023-05-14T10:39:13.474Z,51.94
2023-05-14T10:40:18.884Z,51.32
2023-05-14T10:41:22.314Z,50.30
2023-05-14T10:42:29.208Z,50.01
2023-05-14T10:43:36.907Z,50.18
2023-05-14T10:44:51.731Z,49.23
2023-05-14T10:45:59.992Z,50.76
2023-05-14T10:47:03.685Z,52.51
2023-05-14T10:48:08.553Z,52.27
2023-05-14T10:49:12.656Z,50.98
2023-05-14T10:50:17.845Z,51.64
2023-05-14T10:51:23.365Z,49.54
2023-05-14T10:52:28.343Z,49.39
2023-05-14T10:53:36.056Z,50.14
2023-05-14T10:55:29.565Z,50.20
2023-05-14T10:56:34.845Z,50.91
2023-05-14T10:57:40.186Z,51.67
2023-05-14T10:58:46.098Z,51.85
2023-05-14T10:59:50.486Z,52.13
2023-05-14T11:00:57.164Z,51.42
2023-05-14T11:02:00.099Z,52.67
2023-05-14T11:03:09.790Z,53.42
2023-05-14T11:04:20.991Z,54.72
2023-05-14T11:05:27.916Z,54.42
2023-05-14T11:06:40.608Z,53.76
2023-05-14T11:07:46.857Z,54.00
2023-05-14T11:08:51.983Z,53.19
2023-05-14T11:10:06.037Z,54.13
2023-05-14T11:11:10.549Z,54.62
2023-05-14T11:12:14.401Z,53.77
2023-05-14T11:13:18.927Z,54.35
2023-05-14T11:14:23.209Z,53.83
2023-05-14T11:15:28.698Z,54.14
2023-05-14T11:16:32.055Z,54.27
2023-05-14T11:17:37.377Z,54.35
2023-05-14T11:18:42.187Z,54.50
2023-05-14T11:19:46.290Z,55.31
2023-05-14T11:20:52.850Z,55.64
2023-05-14T11:21:58.318Z,56.19
2023-05-14T11:23:03.906Z,56.88
2023-05-14T11:24:07.657Z,56.81
2023-05-14T11:25:15.134Z,57.34
2023-05-14T11:26:21.406Z,57.45
2023-05-14T11:27:26.629Z,58.27
2023-05-14T11:28:33.284Z,58.50
2023-05-14T11:29:38.436Z,58.06
2023-05-14T11:30:41.085Z,58.18
2023-05-14T11:31:45.078Z,59.49
2023-05-14T11:32:50.463Z,59.42
2023-05-14T11:33:53.827Z,59.13
2023-05-14T11:35:00.261Z,59.19
2023-05-14T11:36:02.879Z,59.35
2023-05-14T11:37:09.742Z,59.23
2023-05-14T11:38:15.969Z,60.45
2023-05-14T11:39:20.973Z,60.38
2023-05-14T11:40:25.757Z,60.39
2023-05-14T11:41:31.264Z,60.56
2023-05-14T11:42:33.978Z,60.39
2023-05-14T11:43:38.404Z,60.42
2023-05-14T11:44:42.521Z,60.21
2023-05-14T11:45:51.351Z,60.22
2023-05-14T11:46:58.027Z,60.07
2023-05-14T11:48:01.872Z,59.75
2023-05-14T11:49:05.145Z,60.38
2023-05-14T11:50:10.518Z,60.06
2023-05-14T11:51:13.634Z,59.51
2023-05-14T11:52:22.275Z,59.99
2023-05-14T11:53:28.690Z,60.22
2023-05-14T11:54:37.032Z,61.01
2023-05-14T11:55:40.420Z,60.71
2023-05-14T11:56:44.705Z,61.45
2023-05-14T11:57:49.185Z,61.21
2023-05-14T11:58:57.425Z,61.50
2023-05-14T12:00:01.406Z,60.84
2023-05-14T12:01:10.391Z,59.44
2023-05-14T12:02:15.687Z,59.62
2023-05-14T12:03:23.843Z,60.97
2023-05-14T12:04:28.433Z,61.76
2023-05-14T12:05:39.835Z,61.87
2023-05-14T12:06:43.936Z,63.29
2023-05-14T12:07:48.548Z,63.66
2023-05-14T12:08:52.633Z,63.47
2023-05-14T12:09:55.666Z,63.80
2023-05-14T12:11:01.194Z,64.71
2023-05-14T12:12:11.225Z,65.17
2023-05-14T12:13:16.510Z,66.01
2023-05-14T12:14:22.080Z,66.35
2023-05-14T12:15:26.915Z,66.79
2023-05-14T12:16:33.988Z,66.08
2023-05-14T12:17:39.508Z,66.01
2023-05-14T12:18:44.661Z,65.97
2023-05-14T12:19:52.307Z,65.69
2023-05-14T12:20:58.154Z,65.57
2023-05-14T12:22:01.757Z,65.43
2023-05-14T12:23:16.325Z,65.53
2023-05-14T12:24:20.374Z,66.03
2023-05-14T12:25:27.343Z,66.54
2023-05-14T12:26:35.663Z,67.45
2023-05-14T12:27:39.669Z,68.04
2023-05-14T12:28:48.424Z,67.66
2023-05-14T12:30:12.929Z,67.62
2023-05-14T12:31:30.159Z,67.91
2023-05-14T12:32:35.564Z,67.39
2023-05-14T12:33:39.101Z,67.14
2023-05-14T12:34:46.494Z,67.21
2023-05-14T12:35:50.745Z,66.72
2023-05-14T12:36:55.571Z,66.29
2023-05-14T12:37:59.382Z,66.42
2023-05-14T12:39:03.810Z,64.99
2023-05-14T12:40:09.850Z,65.61
2023-05-14T12:41:12.813Z,65.88
2023-05-14T12:42:16.999Z,65.78
2023-05-14T12:43:20.873Z,66.11
2023-05-14T12:44:31.806Z,65.87
2023-05-14T12:45:34.641Z,65.08
2023-05-14T12:46:38.893Z,63.56
2023-05-14T12:47:42.110Z,63.99
2023-05-14T12:48:46.748Z,63.76
2023-05-14T12:49:49.731Z,63.25
2023-05-14T12:50:54.126Z,62.69
2023-05-14T12:52:17.096Z,63.23
2023-05-14T12:53:22.660Z,62.87
2023-05-14T12:54:27.140Z,62.44
2023-05-14T12:55:40.805Z,62.18
2023-05-14T12:56:48.288Z,61.19
2023-05-14T12:57:51.514Z,60.26
2023-05-14T12:58:56.777Z,60.78
2023-05-14T12:59:59.747Z,61.31
2023-05-14T13:01:03.976Z,62.29
2023-05-14T13:02:08.440Z,62.26
2023-05-14T13:03:11.329Z,62.82
2023-05-14T13:04:16.233Z,63.82
2023-05-14T13:05:19.663Z,65.38
2023-05-14T13:06:23.779Z,66.30
2023-05-14T13:07:26.495Z,66.42
2023-05-14T13:08:30.686Z,66.84
2023-05-14T13:09:36.038Z,68.02
2023-05-14T13:10:43.090Z,68.80
2023-05-14T13:11:46.935Z,69.00
2023-05-14T13:12:50.882Z,69.91
2023-05-14T13:13:54.893Z,69.66
2023-05-14T13:14:57.717Z,69.15
2023-05-14T13:16:04.157Z,69.93
2023-05-14T13:17:08.753Z,70.23
2023-05-14T13:18:13.049Z,70.57
2023-05-14T13:19:15.984Z,70.98
2023-05-14T13:20:20.120Z,71.43
2023-05-14T13:21:22.908Z,71.41
2023-05-14T13:22:28.963Z,70.60
2023-05-14T13:23:31.798Z,70.19
2023-05-14T13:24:37.582Z,69.65
2023-05-14T13:25:40.496Z,69.18
2023-05-14T13:26:45.204Z,68.88
2023-05-14T13:27:50.959Z,68.91
2023-05-14T13:28:55.254Z,68.89
2023-05-14T13:30:09.802Z,67.87
2023-05-14T13:31:16.272Z,65.73
2023-05-14T13:32:22.562Z,64.58
2023-05-14T13:33:26.161Z,64.44
2023-05-14T13:34:31.122Z,64.84
2023-05-14T13:35:34.863Z,64.62
2023-05-14T13:36:39.985Z,64.08
2023-05-14T13:37:43.992Z,64.02
2023-05-14T13:38:48.021Z,64.82
2023-05-14T13:39:54.952Z,65.58
2023-05-14T13:41:02.663Z,65.60
2023-05-14T13:42:08.022Z,64.84
2023-05-14T13:43:10.993Z,63.71
2023-05-14T13:44:15.202Z,63.90
2023-05-14T13:45:18.965Z,64.42
2023-05-14T13:46:23.804Z,64.20
2023-05-14T13:47:27.135Z,64.01
2023-05-14T13:48:37.503Z,63.91
2023-05-14T13:49:48.538Z,61.74
2023-05-14T13:50:52.876Z,62.67
2023-05-14T13:51:57.662Z,63.16
2023-05-14T13:53:02.933Z,62.53
2023-05-14T13:54:06.962Z,63.07
2023-05-14T13:55:16.377Z,63.09
2023-05-14T13:56:22.829Z,63.57
2023-05-14T13:57:29.711Z,64.15
2023-05-14T13:58:33.845Z,62.60
2023-05-14T13:59:37.015Z,61.66
2023-05-14T14:00:41.822Z,61.84
2023-05-14T14:01:48.254Z,61.68
2023-05-14T14:02:51.424Z,61.38
2023-05-14T14:03:56.142Z,59.74
2023-05-14T14:04:59.591Z,59.49
2023-05-14T14:07:22.806Z,57.69
2023-05-14T14:08:32.209Z,57.03
2023-05-14T14:09:37.561Z,56.10
2023-05-14T14:10:43.477Z,56.52
2023-05-14T14:11:52.330Z,56.38
2023-05-14T14:12:57.963Z,54.96
2023-05-14T14:14:02.870Z,55.34
2023-05-14T14:15:08.112Z,55.46
2023-05-14T14:16:12.068Z,53.75
2023-05-14T14:17:14.918Z,53.69
2023-05-14T14:18:19.206Z,53.47
2023-05-14T14:19:23.004Z,51.19
2023-05-14T14:20:27.414Z,50.74
2023-05-14T14:21:53.765Z,51.54
2023-05-14T14:23:50.631Z,51.69
2023-05-14T14:25:00.589Z,47.82
2023-05-14T14:26:10.405Z,47.75
2023-05-14T14:28:05.108Z,48.48
2023-05-14T14:30:08.897Z,46.39
2023-05-14T14:31:13.429Z,45.76
2023-05-14T14:32:16.655Z,45.70
2023-05-14T14:33:21.018Z,46.89
2023-05-14T14:34:29.033Z,46.54
2023-05-14T14:35:34.168Z,47.13
2023-05-14T14:36:45.711Z,48.28
2023-05-14T14:38:00.087Z,48.05
2023-05-14T14:39:31.591Z,45.40
2023-05-14T14:40:37.178Z,46.60
2023-05-14T14:42:09.185Z,46.90
2023-05-14T14:43:19.039Z,44.41
2023-05-14T14:44:22.517Z,42.98
2023-05-14T14:45:26.945Z,43.25
2023-05-14T14:46:29.844Z,44.18
2023-05-14T14:47:35.284Z,43.33
2023-05-14T14:48:43.026Z,43.53
2023-05-14T14:50:27.913Z,42.44
2023-05-14T14:51:35.663Z,42.92
2023-05-14T14:52:45.780Z,43.61
2023-05-14T14:53:59.054Z,43.59
2023-05-14T14:55:02.731Z,44.36
2023-05-14T14:56:08.089Z,44.70
2023-05-14T14:57:19.006Z,44.25
2023-05-14T14:58:25.184Z,45.07
2023-05-14T14:59:30.372Z,45.15
2023-05-14T15:00:34.148Z,45.95
2023-05-14T15:01:37.981Z,45.72
2023-05-14T15:02:45.749Z,46.25
2023-05-14T15:03:51.593Z,46.29
2023-05-14T15:04:54.698Z,47.32
2023-05-14T15:05:58.640Z,51.48
2023-05-14T15:07:06.161Z,56.93
2023-05-14T15:08:11.340Z,59.23
2023-05-14T15:09:27.300Z,59.76
2023-05-14T15:10:32.000Z,60.07
2023-05-14T15:11:37.434Z,59.95
2023-05-14T15:12:43.943Z,59.07
2023-05-14T15:13:47.937Z,59.49
2023-05-14T15:14:50.669Z,59.10
2023-05-14T15:15:54.552Z,59.38
2023-05-14T15:16:59.662Z,60.69
2023-05-14T15:18:04.620Z,62.34
2023-05-14T15:19:10.025Z,62.80
2023-05-14T15:20:14.966Z,62.87
2023-05-14T15:21:19.006Z,63.30
2023-05-14T15:22:23.744Z,63.88
2023-05-14T15:23:26.518Z,64.58
2023-05-14T15:24:37.560Z,65.67
2023-05-14T15:26:03.377Z,65.86
2023-05-14T15:27:09.643Z,65.45
2023-05-14T15:28:15.572Z,65.04
2023-05-14T15:29:18.393Z,64.29
2023-05-14T15:30:25.014Z,64.36
2023-05-14T15:31:28.306Z,64.79
2023-05-14T15:32:32.669Z,66.41
2023-05-14T15:33:36.359Z,67.70
2023-05-14T15:34:50.670Z,67.72
2023-05-14T15:36:03.722Z,67.17
2023-05-14T15:37:09.172Z,67.28
2023-05-14T15:38:13.274Z,68.33
2023-05-14T15:39:16.472Z,68.49
2023-05-14T15:40:23.732Z,68.59
2023-05-14T15:41:29.370Z,68.71
2023-05-14T15:42:42.879Z,69.28
2023-05-14T15:43:49.048Z,69.31
2023-05-14T15:45:01.656Z,69.54
2023-05-14T15:46:07.744Z,68.88
2023-05-14T15:47:15.977Z,68.80
2023-05-14T15:48:20.095Z,68.76
2023-05-14T15:49:26.447Z,68.01
2023-05-14T15:50:32.805Z,67.50
2023-05-14T15:51:40.754Z,67.14
2023-05-14T15:52:54.140Z,66.85
2023-05-14T15:54:15.296Z,65.56
2023-05-14T15:55:26.262Z,66.47
2023-05-14T15:56:32.713Z,65.90
2023-05-14T15:59:16.765Z,66.81
2023-05-14T16:00:22.798Z,66.74
2023-05-14T16:01:28.851Z,66.10
2023-05-14T16:02:33.534Z,65.20
2023-05-14T16:03:37.249Z,65.15
2023-05-14T16:04:46.002Z,64.23
2023-05-14T16:05:49.586Z,64.41
2023-05-14T16:06:59.587Z,64.31
2023-05-14T16:08:32.940Z,62.04
2023-05-14T16:13:36.904Z,62.74
2023-05-14T16:14:49.719Z,63.01
2023-05-14T16:15:56.029Z,62.91
2023-05-14T16:17:02.073Z,62.08
2023-05-14T16:18:08.920Z,62.09
2023-05-14T16:19:12.178Z,62.43
2023-05-14T16:20:17.481Z,61.50
2023-05-14T16:21:30.950Z,62.75
2023-05-14T16:22:41.151Z,62.79
2023-05-14T16:23:47.064Z,63.09
2023-05-14T16:25:06.236Z,63.39
2023-05-14T16:26:31.698Z,63.69
2023-05-14T16:27:51.494Z,63.66
2023-05-14T16:28:54.041Z,61.75
2023-05-14T16:30:04.928Z,63.51
2023-05-14T16:31:07.913Z,63.49
2023-05-14T16:32:14.775Z,62.90
2023-05-14T16:33:18.810Z,62.33
2023-05-14T16:34:24.211Z,63.41
2023-05-14T16:35:28.945Z,63.14
2023-05-14T16:36:33.203Z,62.02
2023-05-14T16:37:37.007Z,62.36
2023-05-14T16:39:05.309Z,63.03
2023-05-14T16:40:07.668Z,62.73
2023-05-14T16:41:13.134Z,63.35
2023-05-14T16:42:31.275Z,62.32
2023-05-14T16:43:36.296Z,61.24
2023-05-14T16:46:17.841Z,57.24
2023-05-14T16:47:25.410Z,57.34
2023-05-14T16:48:27.867Z,56.51
2023-05-14T16:49:34.138Z,56.12
2023-05-14T16:50:36.863Z,53.64
2023-05-14T16:51:58.295Z,51.94
2023-05-14T16:53:02.604Z,51.96
2023-05-14T16:54:16.055Z,51.88
2023-05-14T16:55:19.685Z,52.23
2023-05-14T16:56:38.883Z,52.26
2023-05-14T16:58:02.483Z,52.85
2023-05-14T16:59:08.237Z,53.35
2023-05-14T17:00:14.775Z,53.19
2023-05-14T17:01:24.627Z,53.13
2023-05-14T17:02:33.333Z,52.58